createdAt,value
2017-05-28T00:00:05.648Z,39.09
2017-05-28T00:01:15.614Z,39.37
2017-05-28T00:02:24.944Z,39.57
2017-05-28T00:03:34.903Z,39.09
2017-05-28T00:04:44.544Z,39.18
2017-05-28T00:05:54.196Z,39.09
2017-05-28T00:07:04.151Z,39.28
2017-05-28T00:08:14.416Z,39.18
2017-05-28T00:09:24.372Z,39.09
2017-05-28T00:10:34.330Z,39.09
2017-05-28T00:11:43.974Z,39.18
2017-05-28T00:12:53.932Z,38.99
2017-05-28T00:14:03.893Z,39.66
2017-05-28T00:15:13.844Z,39.47
2017-05-28T00:16:24.109Z,39.66
2017-05-28T00:17:34.071Z,39.76
2017-05-28T00:18:43.771Z,39.57
2017-05-28T00:19:53.722Z,39.57
2017-05-28T00:21:03.674Z,39.09
2017-05-28T00:22:13.946Z,39.66
2017-05-28T00:23:23.894Z,39.09
2017-05-28T00:24:33.856Z,39.66
2017-05-28T00:25:44.132Z,39.18
2017-05-28T00:26:54.392Z,39.57
2017-05-28T00:28:04.662Z,38.99
2017-05-28T00:29:14.614Z,39.47
2017-05-28T00:30:24.879Z,39.84
2017-05-28T00:31:35.177Z,39.54
2017-05-28T00:32:45.450Z,39.06
2017-05-28T00:33:55.407Z,39.28
2017-05-28T00:35:05.678Z,38.99
2017-05-28T00:36:15.315Z,39.47
2017-05-28T00:37:24.953Z,39.57
2017-05-28T00:38:34.905Z,38.99
2017-05-28T00:39:44.859Z,39.09
2017-05-28T00:40:55.129Z,39.09
2017-05-28T00:42:04.771Z,39.66
2017-05-28T00:43:14.404Z,39.57
2017-05-28T00:44:24.361Z,39.57
2017-05-28T00:45:34.641Z,39.37
2017-05-28T00:46:44.590Z,39.66
2017-05-28T00:47:54.575Z,39.66
2017-05-28T00:49:04.215Z,39.09
2017-05-28T00:50:14.483Z,39.37
2017-05-28T00:51:24.757Z,39.57
2017-05-28T00:52:35.024Z,39.37
2017-05-28T00:53:44.662Z,39.37
2017-05-28T00:54:54.931Z,39.66
2017-05-28T00:56:04.577Z,39.66
2017-05-28T00:57:14.524Z,39.37
2017-05-28T00:58:24.792Z,39.66
2017-05-28T00:59:34.117Z,39.57
2017-05-28T01:00:43.764Z,39.37
2017-05-28T01:01:53.723Z,39.76
2017-05-28T01:03:04.005Z,39.57
2017-05-28T01:04:13.956Z,39.45
2017-05-28T01:05:23.595Z,39.57
2017-05-28T01:06:33.558Z,39.28
2017-05-28T01:07:43.197Z,39.76
2017-05-28T01:08:53.454Z,39.64
2017-05-28T01:10:03.728Z,39.57
2017-05-28T01:11:13.679Z,39.76
2017-05-28T01:12:23.637Z,39.47
2017-05-28T01:13:33.281Z,39.28
2017-05-28T01:14:43.236Z,39.28
2017-05-28T01:15:53.189Z,39.36
2017-05-28T01:17:03.145Z,39.37
2017-05-28T01:18:13.113Z,39.57
2017-05-28T01:19:22.436Z,39.76
2017-05-28T01:20:32.391Z,39.47
2017-05-28T01:21:42.655Z,39.54
2017-05-28T01:22:52.608Z,39.66
2017-05-28T01:24:02.241Z,39.64
2017-05-28T01:25:12.538Z,39.64
2017-05-28T01:26:22.171Z,39.36
2017-05-28T01:27:31.499Z,39.36
2017-05-28T01:28:41.785Z,39.57
2017-05-28T01:29:51.741Z,39.74
2017-05-28T01:31:01.385Z,39.45
2017-05-28T01:32:11.653Z,39.37
2017-05-28T01:33:21.604Z,39.47
2017-05-28T01:34:31.560Z,39.74
2017-05-28T01:35:40.573Z,39.28
2017-05-28T01:36:50.206Z,39.57
2017-05-28T01:38:00.162Z,39.45
2017-05-28T01:39:09.801Z,39.64
2017-05-28T01:40:19.436Z,39.26
2017-05-28T01:41:29.080Z,39.36
2017-05-28T01:42:39.366Z,39.66
2017-05-28T01:43:49.330Z,39.47
2017-05-28T01:44:59.282Z,39.54
2017-05-28T01:46:09.234Z,39.36
2017-05-28T01:47:19.193Z,39.45
2017-05-28T01:48:29.143Z,39.74
2017-05-28T01:49:39.412Z,39.94
2017-05-28T01:50:49.366Z,39.47
2017-05-28T01:51:58.998Z,39.54
2017-05-28T01:53:09.275Z,39.84
2017-05-28T01:54:19.236Z,39.74
2017-05-28T01:55:28.560Z,39.54
2017-05-28T01:56:38.512Z,39.74
2017-05-28T01:57:48.785Z,39.45
2017-05-28T01:58:58.746Z,39.36
2017-05-28T02:00:08.714Z,39.45
2017-05-28T02:01:18.662Z,39.54
2017-05-28T02:02:28.929Z,39.26
2017-05-28T02:03:39.205Z,39.64
2017-05-28T02:04:49.491Z,39.54
2017-05-28T02:05:59.131Z,39.36
2017-05-28T02:07:09.406Z,39.74
2017-05-28T02:08:19.045Z,39.64
2017-05-28T02:09:28.685Z,39.74
2017-05-28T02:10:38.321Z,39.26
2017-05-28T02:11:47.955Z,39.74
2017-05-28T02:12:58.219Z,39.26
2017-05-28T02:14:08.171Z,39.36
2017-05-28T02:15:17.812Z,39.74
2017-05-28T02:16:27.755Z,39.36
2017-05-28T02:17:37.707Z,39.64
2017-05-28T02:18:47.979Z,39.36
2017-05-28T02:19:57.933Z,39.36
2017-05-28T02:21:07.570Z,39.74
2017-05-28T02:22:17.205Z,39.45
2017-05-28T02:23:27.160Z,39.54
2017-05-28T02:24:36.801Z,39.64
2017-05-28T02:25:47.081Z,39.36
2017-05-28T02:26:57.036Z,39.26
2017-05-28T02:28:06.673Z,39.74
2017-05-28T02:29:16.942Z,39.54
2017-05-28T02:30:26.897Z,39.54
2017-05-28T02:31:37.213Z,39.36
2017-05-28T02:32:47.173Z,39.36
2017-05-28T02:33:57.439Z,39.54
2017-05-28T02:35:07.081Z,39.36
2017-05-28T02:36:17.343Z,39.45
2017-05-28T02:37:27.617Z,39.54
2017-05-28T02:38:37.260Z,39.36
2017-05-28T02:39:47.213Z,39.64
2017-05-28T02:40:57.481Z,39.54
2017-05-28T02:42:07.435Z,39.74
2017-05-28T02:43:17.386Z,39.74
2017-05-28T02:44:27.043Z,39.84
2017-05-28T02:45:36.994Z,39.74
2017-05-28T02:46:47.264Z,39.64
2017-05-28T02:47:57.223Z,39.66
2017-05-28T02:49:07.490Z,39.54
2017-05-28T02:50:17.765Z,39.66
2017-05-28T02:51:27.426Z,39.54
2017-05-28T02:52:37.381Z,39.84
2017-05-28T02:53:47.650Z,39.64
2017-05-28T02:54:57.613Z,39.54
2017-05-28T02:56:07.564Z,39.54
2017-05-28T02:57:17.521Z,39.64
2017-05-28T02:58:27.474Z,39.74
2017-05-28T02:59:37.422Z,39.54
2017-05-28T03:00:47.755Z,39.57
2017-05-28T03:01:57.707Z,39.74
2017-05-28T03:03:07.972Z,39.74
2017-05-28T03:04:17.343Z,39.76
2017-05-28T03:05:27.613Z,39.64
2017-05-28T03:06:37.876Z,39.64
2017-05-28T03:07:47.826Z,39.54
2017-05-28T03:08:58.096Z,39.74
2017-05-28T03:10:07.736Z,39.74
2017-05-28T03:11:17.060Z,39.74
2017-05-28T03:12:27.013Z,39.64
2017-05-28T03:13:36.646Z,39.64
2017-05-28T03:14:46.921Z,39.45
2017-05-28T03:15:56.888Z,39.64
2017-05-28T03:17:06.840Z,39.54
2017-05-28T03:18:17.111Z,39.64
2017-05-28T03:19:26.745Z,39.54
2017-05-28T03:20:36.711Z,39.54
2017-05-28T03:22:18.427Z,39.45
2017-05-28T03:23:28.695Z,40.12
2017-05-28T03:24:38.968Z,40.12
2017-05-28T03:25:48.606Z,39.64
2017-05-28T03:26:58.555Z,39.64
2017-05-28T03:28:08.828Z,40.32
2017-05-28T03:29:19.098Z,39.74
2017-05-28T03:30:29.053Z,39.94
2017-05-28T03:31:39.006Z,39.84
2017-05-28T03:32:48.961Z,40.32
2017-05-28T03:33:58.908Z,40.32
2017-05-28T03:35:08.859Z,40.22
2017-05-28T03:36:19.126Z,40.12
2017-05-28T03:37:29.389Z,40.12
2017-05-28T03:38:39.658Z,39.94
2017-05-28T03:39:49.012Z,40.22
2017-05-28T03:40:58.976Z,39.94
2017-05-28T03:42:08.927Z,40.03
2017-05-28T03:43:18.890Z,39.84
2017-05-28T03:44:28.838Z,40.22
2017-05-28T03:45:39.112Z,40.12
2017-05-28T03:46:49.392Z,40.32
2017-05-28T03:47:59.661Z,40.12
2017-05-28T03:49:09.617Z,40.22
2017-05-28T03:50:19.573Z,40.12
2017-05-28T03:51:29.841Z,40.42
2017-05-28T03:52:40.108Z,39.94
2017-05-28T03:53:50.376Z,40.22
2017-05-28T03:55:00.017Z,39.84
2017-05-28T03:56:10.275Z,39.94
2017-05-28T03:57:19.282Z,40.22
2017-05-28T03:58:29.628Z,40.03
2017-05-28T03:59:39.579Z,39.74
2017-05-28T04:00:49.528Z,40.22
2017-05-28T04:01:59.800Z,39.84
2017-05-28T04:03:09.745Z,39.84
2017-05-28T04:04:19.387Z,39.84
2017-05-28T04:05:29.369Z,40.03
2017-05-28T04:06:39.331Z,40.42
2017-05-28T04:07:49.281Z,40.22
2017-05-28T04:08:59.228Z,40.03
2017-05-28T04:10:09.491Z,40.32
2017-05-28T04:11:19.764Z,40.22
2017-05-28T04:12:29.723Z,40.12
2017-05-28T04:13:39.362Z,40.03
2017-05-28T04:14:49.634Z,39.94
2017-05-28T04:15:59.905Z,40.03
2017-05-28T04:17:09.860Z,40.12
2017-05-28T04:18:19.813Z,39.74
2017-05-28T04:19:29.456Z,40.03
2017-05-28T04:20:39.720Z,40.03
2017-05-28T04:21:49.672Z,40.12
2017-05-28T04:22:59.313Z,40.22
2017-05-28T04:24:09.270Z,40.03
2017-05-28T04:25:18.910Z,40.32
2017-05-28T04:26:28.859Z,40.12
2017-05-28T04:27:39.141Z,40.12
2017-05-28T04:28:49.412Z,40.51
2017-05-28T04:29:59.687Z,40.12
2017-05-28T04:31:09.961Z,40.12
2017-05-28T04:32:19.593Z,40.22
2017-05-28T04:33:29.875Z,40.22
2017-05-28T04:34:39.528Z,40.42
2017-05-28T04:35:49.795Z,40.03
2017-05-28T04:36:59.435Z,40.12
2017-05-28T04:38:09.079Z,39.84
2017-05-28T04:39:18.405Z,40.22
2017-05-28T04:40:28.675Z,40.22
2017-05-28T04:41:38.309Z,40.22
2017-05-28T04:42:48.583Z,40.42
2017-05-28T04:43:58.232Z,40.42
2017-05-28T04:45:08.507Z,40.51
2017-05-28T04:46:18.781Z,40.32
2017-05-28T04:47:29.045Z,40.7
2017-05-28T04:48:39.304Z,40.51
2017-05-28T04:49:49.320Z,40.7
2017-05-28T04:50:58.956Z,40.7
2017-05-28T04:52:08.912Z,40.7
2017-05-28T04:53:18.864Z,40.32
2017-05-28T04:54:28.507Z,40.51
2017-05-28T04:55:38.458Z,40.61
2017-05-28T04:56:48.728Z,40.8
2017-05-28T04:57:58.685Z,40.61
2017-05-28T04:59:08.643Z,40.42
2017-05-28T05:00:18.910Z,41.09
2017-05-28T05:01:28.551Z,40.32
2017-05-28T05:02:38.184Z,40.61
2017-05-28T05:03:48.136Z,41.19
2017-05-28T05:04:57.773Z,41.38
2017-05-28T05:06:07.728Z,40.7
2017-05-28T05:07:17.369Z,40.51
2017-05-28T05:08:27.640Z,40.61
2017-05-28T05:09:37.906Z,40.42
2017-05-28T05:10:47.871Z,40.51
2017-05-28T05:11:57.823Z,40.61
2017-05-28T05:13:08.098Z,41.09
2017-05-28T05:14:18.392Z,40.51
2017-05-28T05:15:28.670Z,40.32
2017-05-28T05:16:38.306Z,40.99
2017-05-28T05:17:48.259Z,40.51
2017-05-28T05:18:58.529Z,40.34
2017-05-28T05:20:08.797Z,40.42
2017-05-28T05:21:19.060Z,40.44
2017-05-28T05:22:29.377Z,40.32
2017-05-28T05:23:39.646Z,40.44
2017-05-28T05:24:49.607Z,40.82
2017-05-28T05:25:59.561Z,40.32
2017-05-28T05:27:09.887Z,40.7
2017-05-28T05:28:19.548Z,41.09
2017-05-28T05:29:29.510Z,41.02
2017-05-28T05:30:39.467Z,40.42
2017-05-28T05:31:48.790Z,40.15
2017-05-28T05:32:57.802Z,40.42
2017-05-28T05:34:07.760Z,40.24
2017-05-28T05:35:17.402Z,40.32
2017-05-28T05:36:27.356Z,41.09
2017-05-28T05:37:37.309Z,40.22
2017-05-28T05:38:47.319Z,40.61
2017-05-28T05:39:57.589Z,41.38
2017-05-28T05:41:07.228Z,40.32
2017-05-28T05:42:17.492Z,41.28
2017-05-28T05:43:27.134Z,41.19
2017-05-28T05:44:37.090Z,41.09
2017-05-28T05:45:47.358Z,40.51
2017-05-28T05:46:57.627Z,41.28
2017-05-28T05:48:07.580Z,40.24
2017-05-28T05:49:16.900Z,40.61
2017-05-28T05:50:26.855Z,40.63
2017-05-28T05:51:36.805Z,40.32
2017-05-28T05:52:46.449Z,41.02
2017-05-28T05:53:56.404Z,40.42
2017-05-28T05:55:06.362Z,41.09
2017-05-28T05:56:16.002Z,41.02
2017-05-28T05:57:26.329Z,41.2
2017-05-28T05:58:36.275Z,40.53
2017-05-28T05:59:46.235Z,40.99
2017-05-28T06:00:56.191Z,40.63
2017-05-28T06:02:06.144Z,41.11
2017-05-28T06:03:16.410Z,41.11
2017-05-28T06:04:26.357Z,41.2
2017-05-28T06:05:36.308Z,40.53
2017-05-28T06:06:46.577Z,40.53
2017-05-28T06:07:56.217Z,41.2
2017-05-28T06:09:06.174Z,41.2
2017-05-28T06:10:15.815Z,40.24
2017-05-28T06:11:26.081Z,40.53
2017-05-28T06:12:36.346Z,41.2
2017-05-28T06:13:46.305Z,40.53
2017-05-28T06:14:56.574Z,41.2
2017-05-28T06:16:06.525Z,41.11
2017-05-28T06:17:16.473Z,40.53
2017-05-28T06:18:26.745Z,40.34
2017-05-28T06:19:36.701Z,40.34
2017-05-28T06:20:46.656Z,40.82
2017-05-28T06:21:56.607Z,40.24
2017-05-28T06:23:06.243Z,40.34
2017-05-28T06:24:16.201Z,40.53
2017-05-28T06:25:26.175Z,40.34
2017-05-28T06:26:36.127Z,40.34
2017-05-28T06:27:46.076Z,39.86
2017-05-28T06:28:56.036Z,40.15
2017-05-28T06:30:05.362Z,40.34
2017-05-28T06:31:14.998Z,40.34
2017-05-28T06:32:24.645Z,40.15
2017-05-28T06:33:34.972Z,40.05
2017-05-28T06:34:44.301Z,40.05
2017-05-28T06:35:54.569Z,39.95
2017-05-28T06:37:04.219Z,39.66
2017-05-28T06:38:14.176Z,39.37
2017-05-28T06:39:24.452Z,39.47
2017-05-28T06:40:34.410Z,39.28
2017-05-28T06:41:44.367Z,39.37
2017-05-28T06:42:54.002Z,39.66
2017-05-28T06:44:03.635Z,39.28
2017-05-28T06:45:13.275Z,39.28
2017-05-28T06:46:23.238Z,39.28
2017-05-28T06:47:33.501Z,39.18
2017-05-28T06:48:43.774Z,39.57
2017-05-28T06:49:53.720Z,38.89
2017-05-28T06:51:03.363Z,39.57
2017-05-28T06:52:13.010Z,38.99
2017-05-28T06:53:23.284Z,39.09
2017-05-28T06:54:33.547Z,39.37
2017-05-28T06:55:43.184Z,39.09
2017-05-28T06:56:53.137Z,39.09
2017-05-28T06:58:03.091Z,38.99
2017-05-28T06:59:12.412Z,38.99
2017-05-28T07:00:22.698Z,39.28
2017-05-28T07:01:32.655Z,38.99
2017-05-28T07:02:42.287Z,39.01
2017-05-28T07:03:52.554Z,39.2
2017-05-28T07:05:02.513Z,39.37
2017-05-28T07:06:12.468Z,38.99
2017-05-28T07:07:22.111Z,39.39
2017-05-28T07:08:32.382Z,39.66
2017-05-28T07:09:42.042Z,39.76
2017-05-28T07:10:52.306Z,39.66
2017-05-28T07:12:02.578Z,39.28
2017-05-28T07:13:12.840Z,39.66
2017-05-28T07:14:22.795Z,39.66
2017-05-28T07:15:32.440Z,39.39
2017-05-28T07:16:42.705Z,39.29
2017-05-28T07:17:52.983Z,39.29
2017-05-28T07:19:02.939Z,39.01
2017-05-28T07:20:12.894Z,39.01
2017-05-28T07:21:22.534Z,39.29
2017-05-28T07:22:32.486Z,39.37
2017-05-28T07:23:42.756Z,39.69
2017-05-28T07:24:53.027Z,39.59
2017-05-28T07:26:02.986Z,39.59
2017-05-28T07:27:12.936Z,39.49
2017-05-28T07:28:22.575Z,39.49
2017-05-28T07:29:32.533Z,39.69
2017-05-28T07:30:42.487Z,39.29
2017-05-28T07:31:52.441Z,39.69
2017-05-28T07:33:02.716Z,39.87
2017-05-28T07:34:12.673Z,39.87
2017-05-28T07:35:22.946Z,40.26
2017-05-28T07:36:32.898Z,39.87
2017-05-28T07:37:43.167Z,39.59
2017-05-28T07:38:52.808Z,39.78
2017-05-28T07:40:03.072Z,39.69
2017-05-28T07:41:12.455Z,39.97
2017-05-28T07:42:22.724Z,40.17
2017-05-28T07:43:32.670Z,40.07
2017-05-28T07:44:42.934Z,40.17
2017-05-28T07:45:53.211Z,40.07
2017-05-28T07:47:03.476Z,39.78
2017-05-28T07:48:13.115Z,40.75
2017-05-28T07:49:23.086Z,39.97
2017-05-28T07:50:33.354Z,39.97
2017-05-28T07:51:43.023Z,39.78
2017-05-28T07:52:52.975Z,40.26
2017-05-28T07:54:03.248Z,40.36
2017-05-28T07:55:12.255Z,40.17
2017-05-28T07:56:22.212Z,39.97
2017-05-28T07:57:32.178Z,40.45
2017-05-28T07:58:42.172Z,40.55
2017-05-28T07:59:52.452Z,40.07
2017-05-28T08:01:02.409Z,40.07
2017-05-28T08:02:12.365Z,41.23
2017-05-28T08:03:22.315Z,41.23
2017-05-28T08:04:32.274Z,40.36
2017-05-28T08:05:42.548Z,40.17
2017-05-28T08:06:52.818Z,40.36
2017-05-28T08:08:02.766Z,40.45
2017-05-28T08:09:12.413Z,40.55
2017-05-28T08:10:22.059Z,40.36
2017-05-28T08:11:32.032Z,40.36
2017-05-28T08:12:42.307Z,40.45
2017-05-28T08:13:52.577Z,40.36
2017-05-28T08:15:02.218Z,40.26
2017-05-28T08:16:11.849Z,40.36
2017-05-28T08:17:22.124Z,40.55
2017-05-28T08:18:32.081Z,40.17
2017-05-28T08:19:41.713Z,40.26
2017-05-28T08:20:51.673Z,39.69
2017-05-28T08:22:01.002Z,39.32
2017-05-28T08:23:10.645Z,39.49
2017-05-28T08:24:20.600Z,39.39
2017-05-28T08:25:30.868Z,39.32
2017-05-28T08:26:40.827Z,39.69
2017-05-28T08:27:51.093Z,39.22
2017-05-28T08:29:01.058Z,38.54
2017-05-28T08:30:10.377Z,38.16
2017-05-28T08:31:20.331Z,38.66
2017-05-28T08:32:29.978Z,38.76
2017-05-28T08:33:40.249Z,39.03
2017-05-28T08:34:50.200Z,39.03
2017-05-28T08:36:00.469Z,38.54
2017-05-28T08:37:09.794Z,38.35
2017-05-28T08:38:19.432Z,39.03
2017-05-28T08:39:29.392Z,38.93
2017-05-28T08:40:39.659Z,39.41
2017-05-28T08:41:49.931Z,38.74
2017-05-28T08:42:59.887Z,39.32
2017-05-28T08:44:08.903Z,39.32
2017-05-28T08:45:18.861Z,39.99
2017-05-28T08:46:28.810Z,40.47
2017-05-28T08:47:39.083Z,39.61
2017-05-28T08:48:49.364Z,40.09
2017-05-28T08:49:59.646Z,40.38
2017-05-28T08:51:09.913Z,40.47
2017-05-28T08:52:19.238Z,39.61
2017-05-28T08:53:29.503Z,40.28
2017-05-28T08:54:39.778Z,40.38
2017-05-28T08:55:50.064Z,40.28
2017-05-28T08:57:00.015Z,40.38
2017-05-28T08:58:09.974Z,40.38
2017-05-28T08:59:19.933Z,41.25
2017-05-28T09:00:30.197Z,40.28
2017-05-28T09:01:40.150Z,40.57
2017-05-28T09:02:50.419Z,40.67
2017-05-28T09:03:59.747Z,40.67
2017-05-28T09:05:09.692Z,40.28
2017-05-28T09:06:19.955Z,40.09
2017-05-28T09:07:29.909Z,41.05
2017-05-28T09:08:40.171Z,41.23
2017-05-28T09:09:50.447Z,40.57
2017-05-28T09:11:00.403Z,41.13
2017-05-28T09:12:09.724Z,41.05
2017-05-28T09:13:19.985Z,41.15
2017-05-28T09:14:29.942Z,41.13
2017-05-28T09:15:40.212Z,41.15
2017-05-28T09:16:49.538Z,41.33
2017-05-28T09:17:59.491Z,41.52
2017-05-28T09:19:09.130Z,41.13
2017-05-28T09:20:18.138Z,41.03
2017-05-28T09:21:28.407Z,41.42
2017-05-28T09:22:38.361Z,41.42
2017-05-28T09:23:48.068Z,41.33
2017-05-28T09:24:58.333Z,41.03
2017-05-28T09:26:08.607Z,41.13
2017-05-28T09:27:18.243Z,41.13
2017-05-28T09:28:28.196Z,41.33
2017-05-28T09:29:37.525Z,41.13
2017-05-28T09:30:47.162Z,41.33
2017-05-28T09:31:57.424Z,40.94
2017-05-28T09:33:07.696Z,41.03
2017-05-28T09:34:17.661Z,41.42
2017-05-28T09:35:27.962Z,41.23
2017-05-28T09:36:38.222Z,41.33
2017-05-28T09:37:48.182Z,41.03
2017-05-28T09:38:58.131Z,41.03
2017-05-28T09:40:08.406Z,41.03
2017-05-28T09:41:17.736Z,41.23
2017-05-28T09:42:27.380Z,41.03
2017-05-28T09:43:37.021Z,41.33
2017-05-28T09:44:47.289Z,41.42
2017-05-28T09:45:56.924Z,41.42
2017-05-28T09:47:06.565Z,41.23
2017-05-28T09:48:16.830Z,41.33
2017-05-28T09:49:26.783Z,41.42
2017-05-28T09:50:36.738Z,40.94
2017-05-28T09:51:46.698Z,41.33
2017-05-28T09:52:56.341Z,41.33
2017-05-28T09:54:06.293Z,41.23
2017-05-28T09:55:16.254Z,41.13
2017-05-28T09:56:26.230Z,41.23
2017-05-28T09:57:36.523Z,41.13
2017-05-28T09:58:46.788Z,41.23
2017-05-28T09:59:56.426Z,41.33
2017-05-28T10:01:06.062Z,40.94
2017-05-28T10:02:16.327Z,41.13
2017-05-28T10:03:26.289Z,41.23
2017-05-28T10:04:36.246Z,41.33
2017-05-28T10:05:46.513Z,41.03
2017-05-28T10:06:56.789Z,41.33
2017-05-28T10:08:07.073Z,41.13
2017-05-28T10:09:16.722Z,40.94
2017-05-28T10:10:26.678Z,41.52
2017-05-28T10:11:36.952Z,41.03
2017-05-28T10:12:47.224Z,41.03
2017-05-28T10:13:56.872Z,41.13
2017-05-28T10:15:07.138Z,41.13
2017-05-28T10:16:16.781Z,41.33
2017-05-28T10:17:26.739Z,41.33
2017-05-28T10:18:37.006Z,41.42
2017-05-28T10:19:47.276Z,41.52
2017-05-28T10:20:56.918Z,41.33
2017-05-28T10:22:06.244Z,41.42
2017-05-28T10:23:16.199Z,41.33
2017-05-28T10:24:25.839Z,41.33
2017-05-28T10:25:35.473Z,41.23
2017-05-28T10:26:45.115Z,41.52
2017-05-28T10:27:55.066Z,41.33
2017-05-28T10:29:05.355Z,41.33
2017-05-28T10:30:14.995Z,41.13
2017-05-28T10:31:24.636Z,41.23
2017-05-28T10:32:34.584Z,41.23
2017-05-28T10:33:44.222Z,41.23
2017-05-28T10:34:54.497Z,41.61
2017-05-28T10:36:04.775Z,41.61
2017-05-28T10:37:14.424Z,41.23
2017-05-28T10:38:24.717Z,41.33
2017-05-28T10:39:34.679Z,41.23
2017-05-28T10:40:44.630Z,41.33
2017-05-28T10:41:54.896Z,41.03
2017-05-28T10:43:04.854Z,41.33
2017-05-28T10:44:14.816Z,41.33
2017-05-28T10:45:24.779Z,41.03
2017-05-28T10:46:34.422Z,41.23
2017-05-28T10:47:44.381Z,41.33
2017-05-28T10:48:54.645Z,41.33
2017-05-28T10:50:03.980Z,41.42
2017-05-28T10:51:13.940Z,41.71
2017-05-28T10:52:23.896Z,41.23
2017-05-28T10:53:33.588Z,41.52
2017-05-28T10:54:43.859Z,41.71
2017-05-28T10:55:54.186Z,41.13
2017-05-28T10:57:04.146Z,41.33
2017-05-28T10:58:14.109Z,41.52
2017-05-28T10:59:23.751Z,41.61
2017-05-28T11:00:34.026Z,41.23
2017-05-28T11:01:43.662Z,41.61
2017-05-28T11:02:53.669Z,41.33
2017-05-28T11:04:03.628Z,41.42
2017-05-28T11:05:13.265Z,41.42
2017-05-28T11:06:23.228Z,41.33
2017-05-28T11:07:33.497Z,41.42
2017-05-28T11:08:43.137Z,41.23
2017-05-28T11:09:53.408Z,41.61
2017-05-28T11:11:03.364Z,41.23
2017-05-28T11:12:13.320Z,41.61
2017-05-28T11:13:23.267Z,41.52
2017-05-28T11:14:33.223Z,41.61
2017-05-28T11:15:43.171Z,41.23
2017-05-28T11:16:53.120Z,41.71
2017-05-28T11:18:02.756Z,41.61
2017-05-28T11:19:13.033Z,41.42
2017-05-28T11:20:22.675Z,41.23
2017-05-28T11:21:32.627Z,41.71
2017-05-28T11:22:41.949Z,41.33
2017-05-28T11:23:51.589Z,41.33
2017-05-28T11:25:01.861Z,41.23
2017-05-28T11:26:12.130Z,41.52
2017-05-28T11:27:21.769Z,41.52
2017-05-28T11:28:31.731Z,41.52
2017-05-28T11:29:42.006Z,41.42
2017-05-28T11:30:51.643Z,41.33
2017-05-28T11:32:01.599Z,41.23
2017-05-28T11:33:11.239Z,41.71
2017-05-28T11:34:21.189Z,41.61
2017-05-28T11:35:31.453Z,41.42
2017-05-28T11:36:41.403Z,41.52
2017-05-28T11:37:51.670Z,41.81
2017-05-28T11:39:01.941Z,41.52
2017-05-28T11:40:11.897Z,41.61
2017-05-28T11:41:22.170Z,41.42
2017-05-28T11:42:31.809Z,41.42
2017-05-28T11:43:42.080Z,41.42
2017-05-28T11:44:52.034Z,41.42
2017-05-28T11:46:02.307Z,41.52
2017-05-28T11:47:11.319Z,41.61
2017-05-28T11:48:21.268Z,41.52
2017-05-28T11:49:31.536Z,41.61
2017-05-28T11:50:41.804Z,41.61
2017-05-28T11:51:51.442Z,41.61
2017-05-28T11:53:01.401Z,41.91
2017-05-28T11:54:11.367Z,41.71
2017-05-28T11:55:21.012Z,41.42
2017-05-28T11:56:30.681Z,41.71
2017-05-28T11:57:40.949Z,41.71
2017-05-28T11:58:51.214Z,41.42
2017-05-28T12:00:00.543Z,41.71
2017-05-28T12:01:10.511Z,41.81
2017-05-28T12:02:20.464Z,41.61
2017-05-28T12:03:30.112Z,41.71
2017-05-28T12:04:40.068Z,41.91
2017-05-28T12:05:50.333Z,41.61
2017-05-28T12:06:59.659Z,41.61
2017-05-28T12:08:09.618Z,41.61
2017-05-28T12:09:19.274Z,41.52
2017-05-28T12:10:29.224Z,41.52
2017-05-28T12:11:39.489Z,41.52
2017-05-28T12:12:49.751Z,41.71
2017-05-28T12:13:59.072Z,41.71
2017-05-28T12:15:09.340Z,41.52
2017-05-28T12:16:18.668Z,41.81
2017-05-28T12:17:28.620Z,41.61
2017-05-28T12:18:38.262Z,41.61
2017-05-28T12:19:48.541Z,41.61
2017-05-28T12:20:58.174Z,41.81
2017-05-28T12:22:08.137Z,42.19
2017-05-28T12:23:18.087Z,42.19
2017-05-28T12:24:27.728Z,42.19
2017-05-28T12:25:37.686Z,41.91
2017-05-28T12:26:47.950Z,42.39
2017-05-28T12:27:57.901Z,42
2017-05-28T12:29:07.544Z,42.19
2017-05-28T12:30:17.502Z,42.1
2017-05-28T12:31:27.452Z,42.19
2017-05-28T12:32:37.729Z,42.1
2017-05-28T12:33:47.722Z,42.1
2017-05-28T12:34:57.363Z,42.19
2017-05-28T12:36:07.003Z,42.19
2017-05-28T12:37:16.969Z,42.19
2017-05-28T12:38:26.605Z,42.1
2017-05-28T12:39:36.560Z,42.29
2017-05-28T12:40:46.522Z,42.19
2017-05-28T12:41:56.792Z,42.19
2017-05-28T12:43:07.066Z,42.29
2017-05-28T12:44:17.022Z,42.39
2017-05-28T12:45:27.301Z,42.19
2017-05-28T12:46:36.624Z,42.29
2017-05-28T12:47:46.895Z,41.81
2017-05-28T12:48:57.167Z,41.61
2017-05-28T12:50:07.439Z,41.61
2017-05-28T12:51:17.704Z,41.61
2017-05-28T12:52:27.974Z,41.81
2017-05-28T12:53:38.244Z,41.52
2017-05-28T12:54:48.200Z,41.81
2017-05-28T12:55:57.544Z,41.91
2017-05-28T12:57:07.498Z,42.1
2017-05-28T12:58:17.135Z,42.29
2017-05-28T12:59:27.419Z,42.19
2017-05-28T13:00:37.058Z,42.1
2017-05-28T13:01:47.024Z,42.1
2017-05-28T13:02:57.298Z,42.29
2017-05-28T13:04:07.262Z,42.1
2017-05-28T13:05:16.590Z,41.91
2017-05-28T13:06:26.544Z,42.19
2017-05-28T13:07:36.816Z,41.91
2017-05-28T13:08:47.086Z,42
2017-05-28T13:09:56.729Z,42.48
2017-05-28T13:11:07.001Z,42.29
2017-05-28T13:12:17.266Z,42.29
2017-05-28T13:13:27.225Z,42.29
2017-05-28T13:14:37.494Z,42.29
2017-05-28T13:15:47.759Z,42.39
2017-05-28T13:16:57.717Z,42.77
2017-05-28T13:18:07.679Z,42.79
2017-05-28T13:19:17.639Z,42.39
2017-05-28T13:20:27.907Z,42.31
2017-05-28T13:21:38.182Z,42.31
2017-05-28T13:22:48.445Z,42.41
2017-05-28T13:23:58.403Z,42.39
2017-05-28T13:25:08.041Z,42.41
2017-05-28T13:26:18.004Z,42.29
2017-05-28T13:27:27.956Z,42.48
2017-05-28T13:28:37.909Z,42.39
2017-05-28T13:29:47.868Z,42.31
2017-05-28T13:30:57.827Z,42.19
2017-05-28T13:32:08.103Z,42.41
2017-05-28T13:33:18.057Z,42.21
2017-05-28T13:34:28.011Z,42.39
2017-05-28T13:35:37.650Z,42.89
2017-05-28T13:36:47.604Z,42.5
2017-05-28T13:37:57.557Z,42.31
2017-05-28T13:39:07.198Z,42.48
2017-05-28T13:40:17.151Z,42.87
2017-05-28T13:41:26.788Z,42.6
2017-05-28T13:42:37.059Z,42.68
2017-05-28T13:43:47.329Z,42.89
2017-05-28T13:44:56.967Z,43.45
2017-05-28T13:46:06.930Z,43.18
2017-05-28T13:47:16.880Z,42.99
2017-05-28T13:48:26.538Z,43.08
2017-05-28T13:49:36.490Z,43.18
2017-05-28T13:50:46.132Z,43.08
2017-05-28T13:51:56.084Z,43.28
2017-05-28T13:53:06.036Z,43.08
2017-05-28T13:54:15.685Z,43.08
2017-05-28T13:55:25.642Z,43.28
2017-05-28T13:56:35.919Z,43.47
2017-05-28T13:57:45.575Z,43.18
2017-05-28T13:58:55.853Z,43.66
2017-05-28T14:00:05.826Z,43.66
2017-05-28T14:01:15.776Z,43.66
2017-05-28T14:02:25.732Z,43.76
2017-05-28T14:03:35.687Z,43.57
2017-05-28T14:04:45.338Z,43.66
2017-05-28T14:05:55.293Z,43.57
2017-05-28T14:07:05.249Z,43.76
2017-05-28T14:08:15.197Z,44.34
2017-05-28T14:09:25.161Z,44.82
2017-05-28T14:10:35.428Z,43.85
2017-05-28T14:11:45.699Z,43.66
2017-05-28T14:12:55.025Z,43.66
2017-05-28T14:14:04.980Z,44.05
2017-05-28T14:15:15.349Z,43.66
2017-05-28T14:16:25.305Z,43.76
2017-05-28T14:17:35.584Z,43.57
2017-05-28T14:18:45.853Z,43.37
2017-05-28T14:19:56.123Z,43.57
2017-05-28T14:21:05.771Z,43.35
2017-05-28T14:22:16.043Z,43.35
2017-05-28T14:23:25.685Z,43.47
2017-05-28T14:24:35.328Z,43.54
2017-05-28T14:25:44.995Z,43.74
2017-05-28T14:26:54.949Z,43.66
2017-05-28T14:28:04.905Z,43.35
2017-05-28T14:29:14.536Z,43.45
2017-05-28T14:30:24.491Z,43.35
2017-05-28T14:31:34.128Z,43.64
2017-05-28T14:32:44.409Z,43.64
2017-05-28T14:33:54.368Z,43.66
2017-05-28T14:35:04.323Z,43.54
2017-05-28T14:36:14.591Z,43.45
2017-05-28T14:37:24.231Z,43.64
2017-05-28T14:38:34.184Z,43.54
2017-05-28T14:39:43.827Z,43.45
2017-05-28T14:40:54.101Z,43.54
2017-05-28T14:42:03.423Z,43.66
2017-05-28T14:43:13.697Z,43.47
2017-05-28T14:44:23.650Z,43.76
2017-05-28T14:45:33.924Z,43.35
2017-05-28T14:46:43.559Z,43.95
2017-05-28T14:47:52.900Z,43.66
2017-05-28T14:49:02.538Z,43.54
2017-05-28T14:50:12.807Z,43.37
2017-05-28T14:51:22.761Z,43.64
2017-05-28T14:52:32.772Z,43.66
2017-05-28T14:53:42.729Z,43.66
2017-05-28T14:54:53.005Z,43.64
2017-05-28T14:56:03.274Z,43.66
2017-05-28T14:57:13.544Z,43.26
2017-05-28T14:58:23.525Z,43.57
2017-05-28T14:59:33.790Z,43.45
2017-05-28T15:00:44.060Z,43.45
2017-05-28T15:01:54.023Z,43.45